Killington, VT

11:35 AM EST on March 06, 2015 (GMT -0500)
Fiore Property Services | Change Station
CLOSE
Current Station
Personal Weather Station
Location: Killington, VT
Elevation: 1768 ft
Nearby Weather Stations

Elev 1768 ft 43.65 °N, 72.79 °W | Updated 26 seconds ago

Clear
Clear
36.9 °F
Feels Like 37 °F
N
0.0
Wind Variable Wind from West
Gusts 0.0 mph

Today
High -- | Low -- °F
--% Chance of Precip.
Yesterday
High -- | Low -- °F
Precip. -- in
6:19 AM 5:45 PM
Full, 99% visible
Pressure 30.42 in
Visibility 10.0 miles
Clouds Clear
Windchill 37 °F
Dew Point 7 °F
Humidity 28%
Rainfall in
Snow Depth Not available.
UV 3.0 out of 12
Pollen .40 out of 12
Air Quality Not available.
Flu Activity Not available.
METAR KRUT 061615Z 05003KT 10SM CLR M09/M23 A3042 RMK AO1

More Conditions Fewer Conditions

Pressure 30.42 in
Visibility 10.0 miles
Clouds Clear
Windchill 37 °F
Dew Point 7 °F
Humidity 28%
Rainfall in
Snow Depth Not available.
UV 3.0 out of 12
Pollen .40 out of 12
Air Quality Not available.
Flu Activity Not available.
METAR KRUT 061615Z 05003KT 10SM CLR M09/M23 A3042 RMK AO1

More Conditions Fewer Conditions

10-Day Weather Forecast

Almanac

Astronomy

Mar. 06, 2015 Rise Set
Actual Time
Civil Twilight
Nautical Twilight
Astronomical Twilight
Moon
Length of Visible Light
Length of Day
Tomorrow will be .
, % of the Moon is Illuminated

Today's Extremes

State Highs State Lows

Community

WunderPhotos

Upload Photos

1,803,334 photos uploaded!

WunderBlogs® & News

Nearby

Air Quality

  Air Quality AQ Index Pollutant
Not available.

Snow Depth

Station Depth Elevation

Earthquake Activity

City Distance Mag. Time & Date
Minimum magnitude displayed is 2.5.

Coastal Water Temperatures

Place Temperature

Nearby Weather Stations